sensor_id;sensor_type;location;lat;lon;timestamp;P1;durP1;ratioP1;P2;durP2;ratioP2
34204;SDS011;20471;49.680;20.074;2024-03-02T00:00:22;107.70;;;59.90;;
34204;SDS011;20471;49.680;20.074;2024-03-02T00:03:11;104.70;;;60.80;;
34204;SDS011;20471;49.680;20.074;2024-03-02T00:05:40;104.20;;;59.80;;
34204;SDS011;20471;49.680;20.074;2024-03-02T00:08:08;106.60;;;57.60;;
34204;SDS011;20471;49.680;20.074;2024-03-02T00:10:39;107.30;;;57.90;;
34204;SDS011;20471;49.680;20.074;2024-03-02T00:13:08;105.50;;;56.80;;
34204;SDS011;20471;49.680;20.074;2024-03-02T00:15:55;103.00;;;57.20;;
34204;SDS011;20471;49.680;20.074;2024-03-02T00:20:58;95.10;;;53.00;;
34204;SDS011;20471;49.680;20.074;2024-03-02T00:23:27;102.00;;;56.40;;
34204;SDS011;20471;49.680;20.074;2024-03-02T00:25:58;93.00;;;54.10;;
34204;SDS011;20471;49.680;20.074;2024-03-02T00:33:41;104.20;;;57.20;;
34204;SDS011;20471;49.680;20.074;2024-03-02T00:36:16;101.10;;;57.90;;
34204;SDS011;20471;49.680;20.074;2024-03-02T00:38:51;105.30;;;55.90;;
34204;SDS011;20471;49.680;20.074;2024-03-02T00:41:27;102.00;;;57.00;;
34204;SDS011;20471;49.680;20.074;2024-03-02T00:44:12;103.10;;;55.90;;
34204;SDS011;20471;49.680;20.074;2024-03-02T00:46:41;99.20;;;57.80;;
34204;SDS011;20471;49.680;20.074;2024-03-02T00:51:47;106.30;;;59.80;;
34204;SDS011;20471;49.680;20.074;2024-03-02T00:54:23;97.30;;;56.10;;
34204;SDS011;20471;49.680;20.074;2024-03-02T00:56:52;97.20;;;55.90;;
34204;SDS011;20471;49.680;20.074;2024-03-02T00:59:25;106.30;;;57.20;;
34204;SDS011;20471;49.680;20.074;2024-03-02T01:01:52;85.20;;;50.50;;
34204;SDS011;20471;49.680;20.074;2024-03-02T01:04:20;81.80;;;50.50;;
34204;SDS011;20471;49.680;20.074;2024-03-02T01:06:48;89.30;;;52.30;;
34204;SDS011;20471;49.680;20.074;2024-03-02T01:09:16;82.90;;;49.70;;
34204;SDS011;20471;49.680;20.074;2024-03-02T01:11:44;83.00;;;49.40;;
34204;SDS011;20471;49.680;20.074;2024-03-02T01:14:11;82.80;;;51.70;;
34204;SDS011;20471;49.680;20.074;2024-03-02T01:16:39;82.40;;;50.60;;
34204;SDS011;20471;49.680;20.074;2024-03-02T01:19:07;86.00;;;49.00;;
34204;SDS011;20471;49.680;20.074;2024-03-02T01:21:36;86.90;;;54.00;;
34204;SDS011;20471;49.680;20.074;2024-03-02T01:24:03;98.20;;;56.00;;
34204;SDS011;20471;49.680;20.074;2024-03-02T01:26:31;89.80;;;53.70;;
34204;SDS011;20471;49.680;20.074;2024-03-02T01:28:59;91.90;;;54.90;;
34204;SDS011;20471;49.680;20.074;2024-03-02T01:31:27;93.80;;;54.10;;
34204;SDS011;20471;49.680;20.074;2024-03-02T01:33:54;89.70;;;51.50;;
34204;SDS011;20471;49.680;20.074;2024-03-02T01:36:22;83.20;;;47.00;;
34204;SDS011;20471;49.680;20.074;2024-03-02T01:38:50;82.70;;;44.70;;
34204;SDS011;20471;49.680;20.074;2024-03-02T01:41:17;77.50;;;44.80;;
34204;SDS011;20471;49.680;20.074;2024-03-02T01:43:45;74.50;;;44.60;;
34204;SDS011;20471;49.680;20.074;2024-03-02T01:46:13;73.20;;;43.90;;
34204;SDS011;20471;49.680;20.074;2024-03-02T01:48:40;78.20;;;44.70;;
34204;SDS011;20471;49.680;20.074;2024-03-02T01:51:08;74.40;;;44.80;;
34204;SDS011;20471;49.680;20.074;2024-03-02T01:53:36;80.60;;;44.00;;
34204;SDS011;20471;49.680;20.074;2024-03-02T01:56:04;95.50;;;50.60;;
34204;SDS011;20471;49.680;20.074;2024-03-02T01:58:32;95.60;;;53.40;;
34204;SDS011;20471;49.680;20.074;2024-03-02T02:01:00;89.80;;;50.50;;
34204;SDS011;20471;49.680;20.074;2024-03-02T02:03:28;81.80;;;46.70;;
34204;SDS011;20471;49.680;20.074;2024-03-02T02:05:56;71.10;;;43.50;;
34204;SDS011;20471;49.680;20.074;2024-03-02T02:08:23;73.40;;;42.40;;
34204;SDS011;20471;49.680;20.074;2024-03-02T02:10:51;73.20;;;42.30;;
34204;SDS011;20471;49.680;20.074;2024-03-02T02:13:19;72.60;;;43.70;;
34204;SDS011;20471;49.680;20.074;2024-03-02T02:15:46;75.30;;;43.40;;
34204;SDS011;20471;49.680;20.074;2024-03-02T02:18:14;68.30;;;40.80;;
34204;SDS011;20471;49.680;20.074;2024-03-02T02:20:42;70.40;;;40.80;;
34204;SDS011;20471;49.680;20.074;2024-03-02T02:23:09;74.40;;;42.90;;
34204;SDS011;20471;49.680;20.074;2024-03-02T02:25:38;66.20;;;40.60;;
34204;SDS011;20471;49.680;20.074;2024-03-02T02:28:06;72.20;;;43.30;;
34204;SDS011;20471;49.680;20.074;2024-03-02T02:30:34;79.00;;;43.50;;
34204;SDS011;20471;49.680;20.074;2024-03-02T02:33:02;72.20;;;41.20;;
34204;SDS011;20471;49.680;20.074;2024-03-02T02:35:29;63.30;;;38.90;;
34204;SDS011;20471;49.680;20.074;2024-03-02T02:37:57;64.30;;;39.20;;
34204;SDS011;20471;49.680;20.074;2024-03-02T02:40:26;59.20;;;39.00;;
34204;SDS011;20471;49.680;20.074;2024-03-02T02:42:56;64.70;;;40.60;;
34204;SDS011;20471;49.680;20.074;2024-03-02T02:45:26;68.50;;;40.80;;
34204;SDS011;20471;49.680;20.074;2024-03-02T02:47:54;64.80;;;36.00;;
34204;SDS011;20471;49.680;20.074;2024-03-02T02:50:22;55.90;;;34.30;;
34204;SDS011;20471;49.680;20.074;2024-03-02T02:52:49;54.30;;;33.50;;
34204;SDS011;20471;49.680;20.074;2024-03-02T02:55:17;51.20;;;32.40;;
34204;SDS011;20471;49.680;20.074;2024-03-02T02:57:45;53.50;;;32.40;;
34204;SDS011;20471;49.680;20.074;2024-03-02T03:00:13;54.20;;;32.40;;
34204;SDS011;20471;49.680;20.074;2024-03-02T03:02:44;52.60;;;32.50;;
34204;SDS011;20471;49.680;20.074;2024-03-02T03:05:16;50.30;;;32.80;;
34204;SDS011;20471;49.680;20.074;2024-03-02T03:07:43;53.10;;;31.80;;
34204;SDS011;20471;49.680;20.074;2024-03-02T03:10:11;53.90;;;33.80;;
34204;SDS011;20471;49.680;20.074;2024-03-02T03:12:39;55.40;;;33.50;;
34204;SDS011;20471;49.680;20.074;2024-03-02T03:15:09;53.40;;;32.90;;
34204;SDS011;20471;49.680;20.074;2024-03-02T03:17:37;51.10;;;33.80;;
34204;SDS011;20471;49.680;20.074;2024-03-02T03:20:05;56.50;;;34.30;;
34204;SDS011;20471;49.680;20.074;2024-03-02T03:22:36;56.10;;;33.60;;
34204;SDS011;20471;49.680;20.074;2024-03-02T03:25:04;52.10;;;31.80;;
34204;SDS011;20471;49.680;20.074;2024-03-02T03:27:34;52.30;;;33.90;;
34204;SDS011;20471;49.680;20.074;2024-03-02T03:30:02;54.60;;;33.10;;
34204;SDS011;20471;49.680;20.074;2024-03-02T03:32:30;60.60;;;35.60;;
34204;SDS011;20471;49.680;20.074;2024-03-02T03:34:57;61.50;;;34.80;;
34204;SDS011;20471;49.680;20.074;2024-03-02T03:37:25;65.90;;;35.20;;
34204;SDS011;20471;49.680;20.074;2024-03-02T03:39:59;61.50;;;38.30;;
34204;SDS011;20471;49.680;20.074;2024-03-02T03:42:27;65.70;;;40.80;;
34204;SDS011;20471;49.680;20.074;2024-03-02T03:44:55;82.00;;;50.50;;
34204;SDS011;20471;49.680;20.074;2024-03-02T03:47:22;80.00;;;48.90;;
34204;SDS011;20471;49.680;20.074;2024-03-02T03:49:50;78.80;;;50.40;;
34204;SDS011;20471;49.680;20.074;2024-03-02T03:52:18;79.30;;;50.70;;
34204;SDS011;20471;49.680;20.074;2024-03-02T03:54:47;82.40;;;50.00;;
34204;SDS011;20471;49.680;20.074;2024-03-02T03:57:14;77.50;;;47.70;;
34204;SDS011;20471;49.680;20.074;2024-03-02T03:59:42;71.30;;;45.20;;
34204;SDS011;20471;49.680;20.074;2024-03-02T04:02:10;73.90;;;45.50;;
34204;SDS011;20471;49.680;20.074;2024-03-02T04:04:39;67.70;;;42.40;;
34204;SDS011;20471;49.680;20.074;2024-03-02T04:07:06;66.40;;;43.20;;
34204;SDS011;20471;49.680;20.074;2024-03-02T04:09:34;70.20;;;43.60;;
34204;SDS011;20471;49.680;20.074;2024-03-02T04:12:02;70.20;;;45.30;;
34204;SDS011;20471;49.680;20.074;2024-03-02T04:14:30;66.70;;;39.20;;
34204;SDS011;20471;49.680;20.074;2024-03-02T04:16:57;57.60;;;35.60;;
34204;SDS011;20471;49.680;20.074;2024-03-02T04:19:25;54.90;;;33.70;;
34204;SDS011;20471;49.680;20.074;2024-03-02T04:21:52;53.90;;;33.00;;
34204;SDS011;20471;49.680;20.074;2024-03-02T04:24:20;59.30;;;35.90;;
34204;SDS011;20471;49.680;20.074;2024-03-02T04:26:48;65.20;;;37.30;;
34204;SDS011;20471;49.680;20.074;2024-03-02T04:29:16;59.30;;;36.10;;
34204;SDS011;20471;49.680;20.074;2024-03-02T04:31:45;55.80;;;35.00;;
34204;SDS011;20471;49.680;20.074;2024-03-02T04:34:12;63.30;;;36.30;;
34204;SDS011;20471;49.680;20.074;2024-03-02T04:36:40;56.30;;;33.80;;
34204;SDS011;20471;49.680;20.074;2024-03-02T04:39:07;56.60;;;33.80;;
34204;SDS011;20471;49.680;20.074;2024-03-02T04:41:37;58.40;;;35.10;;
34204;SDS011;20471;49.680;20.074;2024-03-02T04:44:05;54.90;;;34.30;;
34204;SDS011;20471;49.680;20.074;2024-03-02T04:46:34;54.90;;;32.70;;
34204;SDS011;20471;49.680;20.074;2024-03-02T04:49:02;55.50;;;33.40;;
34204;SDS011;20471;49.680;20.074;2024-03-02T04:51:29;57.60;;;33.40;;
34204;SDS011;20471;49.680;20.074;2024-03-02T04:53:57;54.00;;;35.00;;
34204;SDS011;20471;49.680;20.074;2024-03-02T04:56:25;56.80;;;35.30;;
34204;SDS011;20471;49.680;20.074;2024-03-02T04:59:10;57.30;;;35.30;;
34204;SDS011;20471;49.680;20.074;2024-03-02T05:01:38;55.90;;;34.50;;
34204;SDS011;20471;49.680;20.074;2024-03-02T05:04:06;52.90;;;32.90;;
34204;SDS011;20471;49.680;20.074;2024-03-02T05:06:34;49.70;;;32.40;;
34204;SDS011;20471;49.680;20.074;2024-03-02T05:09:01;48.60;;;31.10;;
34204;SDS011;20471;49.680;20.074;2024-03-02T05:11:29;50.20;;;29.60;;
34204;SDS011;20471;49.680;20.074;2024-03-02T05:14:19;51.40;;;32.70;;
34204;SDS011;20471;49.680;20.074;2024-03-02T05:16:47;51.50;;;31.40;;
34204;SDS011;20471;49.680;20.074;2024-03-02T05:19:14;54.50;;;33.30;;
34204;SDS011;20471;49.680;20.074;2024-03-02T05:21:42;54.70;;;33.30;;
34204;SDS011;20471;49.680;20.074;2024-03-02T05:24:10;50.00;;;30.30;;
34204;SDS011;20471;49.680;20.074;2024-03-02T05:26:37;59.60;;;37.10;;
34204;SDS011;20471;49.680;20.074;2024-03-02T05:29:05;59.60;;;33.90;;
34204;SDS011;20471;49.680;20.074;2024-03-02T05:31:33;48.80;;;31.70;;
34204;SDS011;20471;49.680;20.074;2024-03-02T05:34:01;47.20;;;31.10;;
34204;SDS011;20471;49.680;20.074;2024-03-02T05:36:29;54.60;;;32.80;;
34204;SDS011;20471;49.680;20.074;2024-03-02T05:38:56;58.40;;;34.70;;
34204;SDS011;20471;49.680;20.074;2024-03-02T05:41:24;56.00;;;33.60;;
34204;SDS011;20471;49.680;20.074;2024-03-02T05:43:51;52.00;;;34.10;;
34204;SDS011;20471;49.680;20.074;2024-03-02T05:46:19;60.30;;;34.10;;
34204;SDS011;20471;49.680;20.074;2024-03-02T05:48:47;56.20;;;32.90;;
34204;SDS011;20471;49.680;20.074;2024-03-02T05:51:14;51.30;;;32.90;;
34204;SDS011;20471;49.680;20.074;2024-03-02T05:53:42;49.60;;;32.60;;
34204;SDS011;20471;49.680;20.074;2024-03-02T05:56:10;57.40;;;33.80;;
34204;SDS011;20471;49.680;20.074;2024-03-02T05:58:38;51.90;;;34.20;;
34204;SDS011;20471;49.680;20.074;2024-03-02T06:01:19;53.40;;;33.30;;
34204;SDS011;20471;49.680;20.074;2024-03-02T06:03:48;47.80;;;33.50;;
34204;SDS011;20471;49.680;20.074;2024-03-02T06:06:16;46.60;;;31.00;;
34204;SDS011;20471;49.680;20.074;2024-03-02T06:08:44;49.30;;;32.20;;
34204;SDS011;20471;49.680;20.074;2024-03-02T06:11:11;55.60;;;34.40;;
34204;SDS011;20471;49.680;20.074;2024-03-02T06:13:39;53.60;;;34.20;;
34204;SDS011;20471;49.680;20.074;2024-03-02T06:16:07;56.00;;;36.00;;
34204;SDS011;20471;49.680;20.074;2024-03-02T06:18:35;61.70;;;38.00;;
34204;SDS011;20471;49.680;20.074;2024-03-02T06:21:02;53.50;;;38.70;;
34204;SDS011;20471;49.680;20.074;2024-03-02T06:23:30;62.50;;;37.70;;
34204;SDS011;20471;49.680;20.074;2024-03-02T06:25:58;62.60;;;38.90;;
34204;SDS011;20471;49.680;20.074;2024-03-02T06:28:26;66.60;;;42.50;;
34204;SDS011;20471;49.680;20.074;2024-03-02T06:30:53;71.80;;;45.70;;
34204;SDS011;20471;49.680;20.074;2024-03-02T06:33:21;66.30;;;43.30;;
34204;SDS011;20471;49.680;20.074;2024-03-02T06:35:49;66.80;;;43.50;;
34204;SDS011;20471;49.680;20.074;2024-03-02T06:38:16;68.40;;;43.00;;
34204;SDS011;20471;49.680;20.074;2024-03-02T06:40:44;64.90;;;41.10;;
34204;SDS011;20471;49.680;20.074;2024-03-02T06:43:12;59.40;;;40.60;;
34204;SDS011;20471;49.680;20.074;2024-03-02T06:45:40;66.10;;;39.80;;
34204;SDS011;20471;49.680;20.074;2024-03-02T06:48:07;67.70;;;41.20;;
34204;SDS011;20471;49.680;20.074;2024-03-02T06:50:35;64.50;;;40.70;;
34204;SDS011;20471;49.680;20.074;2024-03-02T06:53:03;62.30;;;39.90;;
34204;SDS011;20471;49.680;20.074;2024-03-02T06:55:31;61.20;;;39.90;;
34204;SDS011;20471;49.680;20.074;2024-03-02T06:57:58;61.90;;;41.20;;
34204;SDS011;20471;49.680;20.074;2024-03-02T07:00:26;64.40;;;41.70;;
34204;SDS011;20471;49.680;20.074;2024-03-02T07:02:54;72.60;;;44.50;;
34204;SDS011;20471;49.680;20.074;2024-03-02T07:05:21;74.80;;;43.80;;
34204;SDS011;20471;49.680;20.074;2024-03-02T07:07:49;77.20;;;45.20;;
34204;SDS011;20471;49.680;20.074;2024-03-02T07:10:17;76.10;;;45.10;;
34204;SDS011;20471;49.680;20.074;2024-03-02T07:12:44;69.30;;;43.90;;
34204;SDS011;20471;49.680;20.074;2024-03-02T07:15:12;70.00;;;44.90;;
34204;SDS011;20471;49.680;20.074;2024-03-02T07:17:56;74.10;;;45.60;;
34204;SDS011;20471;49.680;20.074;2024-03-02T07:20:24;70.50;;;44.10;;
34204;SDS011;20471;49.680;20.074;2024-03-02T07:22:51;64.40;;;41.60;;
34204;SDS011;20471;49.680;20.074;2024-03-02T07:25:19;60.10;;;40.70;;
34204;SDS011;20471;49.680;20.074;2024-03-02T07:27:47;65.30;;;41.00;;
34204;SDS011;20471;49.680;20.074;2024-03-02T07:30:15;66.60;;;41.70;;
34204;SDS011;20471;49.680;20.074;2024-03-02T07:32:43;67.00;;;42.20;;
34204;SDS011;20471;49.680;20.074;2024-03-02T07:35:12;68.10;;;41.00;;
34204;SDS011;20471;49.680;20.074;2024-03-02T07:37:43;64.10;;;41.30;;
34204;SDS011;20471;49.680;20.074;2024-03-02T07:40:11;64.20;;;41.00;;
34204;SDS011;20471;49.680;20.074;2024-03-02T07:42:39;72.70;;;41.80;;
34204;SDS011;20471;49.680;20.074;2024-03-02T07:45:08;71.10;;;42.50;;
34204;SDS011;20471;49.680;20.074;2024-03-02T07:47:36;66.20;;;43.40;;
34204;SDS011;20471;49.680;20.074;2024-03-02T07:50:04;70.20;;;42.80;;
34204;SDS011;20471;49.680;20.074;2024-03-02T07:52:33;78.60;;;45.70;;
34204;SDS011;20471;49.680;20.074;2024-03-02T07:55:01;78.30;;;46.90;;
34204;SDS011;20471;49.680;20.074;2024-03-02T07:57:28;78.10;;;45.10;;
34204;SDS011;20471;49.680;20.074;2024-03-02T07:59:56;70.50;;;43.80;;
34204;SDS011;20471;49.680;20.074;2024-03-02T08:02:25;62.50;;;38.90;;
34204;SDS011;20471;49.680;20.074;2024-03-02T08:04:53;68.00;;;39.60;;
34204;SDS011;20471;49.680;20.074;2024-03-02T08:07:21;70.70;;;42.40;;
34204;SDS011;20471;49.680;20.074;2024-03-02T08:09:49;63.50;;;42.80;;
34204;SDS011;20471;49.680;20.074;2024-03-02T08:12:16;72.50;;;45.80;;
34204;SDS011;20471;49.680;20.074;2024-03-02T08:14:45;72.50;;;44.00;;
34204;SDS011;20471;49.680;20.074;2024-03-02T08:17:13;67.10;;;44.80;;
34204;SDS011;20471;49.680;20.074;2024-03-02T08:19:41;80.60;;;48.40;;
34204;SDS011;20471;49.680;20.074;2024-03-02T08:22:08;74.80;;;51.30;;
34204;SDS011;20471;49.680;20.074;2024-03-02T08:24:36;76.10;;;50.00;;
34204;SDS011;20471;49.680;20.074;2024-03-02T08:27:04;75.40;;;49.00;;
34204;SDS011;20471;49.680;20.074;2024-03-02T08:29:32;80.60;;;48.70;;
34204;SDS011;20471;49.680;20.074;2024-03-02T08:31:59;72.30;;;46.70;;
34204;SDS011;20471;49.680;20.074;2024-03-02T08:34:27;76.20;;;44.90;;
34204;SDS011;20471;49.680;20.074;2024-03-02T08:36:55;73.90;;;44.10;;
34204;SDS011;20471;49.680;20.074;2024-03-02T08:39:22;67.20;;;43.30;;
34204;SDS011;20471;49.680;20.074;2024-03-02T08:41:50;69.70;;;45.10;;
34204;SDS011;20471;49.680;20.074;2024-03-02T08:44:18;69.40;;;43.80;;
34204;SDS011;20471;49.680;20.074;2024-03-02T08:46:46;71.70;;;43.20;;
34204;SDS011;20471;49.680;20.074;2024-03-02T08:49:14;68.60;;;42.50;;
34204;SDS011;20471;49.680;20.074;2024-03-02T08:51:41;66.20;;;41.50;;
34204;SDS011;20471;49.680;20.074;2024-03-02T08:54:09;64.20;;;41.50;;
34204;SDS011;20471;49.680;20.074;2024-03-02T08:56:37;63.80;;;41.90;;
34204;SDS011;20471;49.680;20.074;2024-03-02T08:59:04;73.10;;;43.00;;
34204;SDS011;20471;49.680;20.074;2024-03-02T09:01:32;73.50;;;47.70;;
34204;SDS011;20471;49.680;20.074;2024-03-02T09:04:00;74.70;;;45.10;;
34204;SDS011;20471;49.680;20.074;2024-03-02T09:06:27;69.60;;;45.80;;
34204;SDS011;20471;49.680;20.074;2024-03-02T09:08:55;78.20;;;49.10;;
34204;SDS011;20471;49.680;20.074;2024-03-02T09:11:23;79.90;;;49.00;;
34204;SDS011;20471;49.680;20.074;2024-03-02T09:13:51;77.50;;;48.40;;
34204;SDS011;20471;49.680;20.074;2024-03-02T09:16:19;83.20;;;50.20;;
34204;SDS011;20471;49.680;20.074;2024-03-02T09:18:47;74.10;;;47.70;;
34204;SDS011;20471;49.680;20.074;2024-03-02T09:21:14;78.00;;;46.60;;
34204;SDS011;20471;49.680;20.074;2024-03-02T09:23:42;72.80;;;45.30;;
34204;SDS011;20471;49.680;20.074;2024-03-02T09:26:11;75.00;;;44.30;;
34204;SDS011;20471;49.680;20.074;2024-03-02T09:28:43;85.50;;;45.40;;
34204;SDS011;20471;49.680;20.074;2024-03-02T09:31:11;74.40;;;46.10;;
34204;SDS011;20471;49.680;20.074;2024-03-02T09:33:39;76.60;;;45.50;;
34204;SDS011;20471;49.680;20.074;2024-03-02T09:36:16;77.50;;;48.20;;
34204;SDS011;20471;49.680;20.074;2024-03-02T09:38:48;84.30;;;51.40;;
34204;SDS011;20471;49.680;20.074;2024-03-02T09:41:16;80.60;;;49.60;;
34204;SDS011;20471;49.680;20.074;2024-03-02T09:43:44;85.50;;;54.30;;
34204;SDS011;20471;49.680;20.074;2024-03-02T09:46:11;90.70;;;56.00;;
34204;SDS011;20471;49.680;20.074;2024-03-02T09:48:39;88.50;;;55.50;;
34204;SDS011;20471;49.680;20.074;2024-03-02T09:51:07;79.30;;;52.20;;
34204;SDS011;20471;49.680;20.074;2024-03-02T09:53:36;85.40;;;53.40;;
34204;SDS011;20471;49.680;20.074;2024-03-02T09:56:04;81.10;;;51.70;;
34204;SDS011;20471;49.680;20.074;2024-03-02T09:58:32;83.70;;;52.50;;
34204;SDS011;20471;49.680;20.074;2024-03-02T10:01:00;82.00;;;53.80;;
34204;SDS011;20471;49.680;20.074;2024-03-02T10:03:27;83.50;;;52.10;;
34204;SDS011;20471;49.680;20.074;2024-03-02T10:06:16;78.50;;;51.00;;
34204;SDS011;20471;49.680;20.074;2024-03-02T10:08:52;77.90;;;51.30;;
34204;SDS011;20471;49.680;20.074;2024-03-02T10:11:28;79.80;;;50.00;;
34204;SDS011;20471;49.680;20.074;2024-03-02T10:14:10;81.20;;;48.60;;
34204;SDS011;20471;49.680;20.074;2024-03-02T10:16:39;72.80;;;46.70;;
34204;SDS011;20471;49.680;20.074;2024-03-02T10:19:15;62.80;;;41.90;;
34204;SDS011;20471;49.680;20.074;2024-03-02T10:21:47;66.60;;;43.30;;
34204;SDS011;20471;49.680;20.074;2024-03-02T10:24:16;63.80;;;42.40;;
34204;SDS011;20471;49.680;20.074;2024-03-02T10:26:44;64.50;;;42.30;;
34204;SDS011;20471;49.680;20.074;2024-03-02T10:29:12;76.30;;;45.90;;
34204;SDS011;20471;49.680;20.074;2024-03-02T10:31:44;73.20;;;47.40;;
34204;SDS011;20471;49.680;20.074;2024-03-02T10:36:42;75.50;;;46.50;;
34204;SDS011;20471;49.680;20.074;2024-03-02T10:39:11;71.10;;;48.90;;
34204;SDS011;20471;49.680;20.074;2024-03-02T10:41:41;69.50;;;48.30;;
34204;SDS011;20471;49.680;20.074;2024-03-02T10:44:09;69.60;;;48.30;;
34204;SDS011;20471;49.680;20.074;2024-03-02T10:46:37;77.00;;;50.90;;
34204;SDS011;20471;49.680;20.074;2024-03-02T10:49:05;78.20;;;48.80;;
34204;SDS011;20471;49.680;20.074;2024-03-02T10:51:33;72.60;;;47.30;;
34204;SDS011;20471;49.680;20.074;2024-03-02T10:54:03;71.70;;;47.80;;
34204;SDS011;20471;49.680;20.074;2024-03-02T10:56:39;70.80;;;46.70;;
34204;SDS011;20471;49.680;20.074;2024-03-02T11:01:55;70.30;;;46.10;;
34204;SDS011;20471;49.680;20.074;2024-03-02T11:04:25;66.80;;;41.30;;
34204;SDS011;20471;49.680;20.074;2024-03-02T11:07:02;68.30;;;45.00;;
34204;SDS011;20471;49.680;20.074;2024-03-02T11:09:36;104.60;;;64.60;;
34204;SDS011;20471;49.680;20.074;2024-03-02T11:12:09;74.30;;;47.70;;
34204;SDS011;20471;49.680;20.074;2024-03-02T11:14:40;68.20;;;45.20;;
34204;SDS011;20471;49.680;20.074;2024-03-02T11:17:10;72.80;;;45.70;;
34204;SDS011;20471;49.680;20.074;2024-03-02T11:19:41;72.60;;;46.30;;
34204;SDS011;20471;49.680;20.074;2024-03-02T11:22:10;74.90;;;50.80;;
34204;SDS011;20471;49.680;20.074;2024-03-02T11:24:40;84.50;;;54.70;;
34204;SDS011;20471;49.680;20.074;2024-03-02T11:27:20;85.00;;;56.80;;
34204;SDS011;20471;49.680;20.074;2024-03-02T11:33:00;75.90;;;52.80;;
34204;SDS011;20471;49.680;20.074;2024-03-02T11:35:33;76.10;;;49.00;;
34204;SDS011;20471;49.680;20.074;2024-03-02T11:38:02;65.40;;;46.40;;
34204;SDS011;20471;49.680;20.074;2024-03-02T11:40:29;62.70;;;41.50;;
34204;SDS011;20471;49.680;20.074;2024-03-02T11:43:00;64.10;;;42.00;;
34204;SDS011;20471;49.680;20.074;2024-03-02T11:45:28;64.00;;;42.00;;
34204;SDS011;20471;49.680;20.074;2024-03-02T11:47:57;60.80;;;41.10;;
34204;SDS011;20471;49.680;20.074;2024-03-02T11:53:08;60.60;;;36.70;;
34204;SDS011;20471;49.680;20.074;2024-03-02T11:55:38;52.40;;;36.20;;
34204;SDS011;20471;49.680;20.074;2024-03-02T11:58:07;60.10;;;38.40;;
34204;SDS011;20471;49.680;20.074;2024-03-02T12:00:35;56.40;;;34.60;;
34204;SDS011;20471;49.680;20.074;2024-03-02T12:03:07;58.50;;;36.00;;
34204;SDS011;20471;49.680;20.074;2024-03-02T12:05:37;58.60;;;34.70;;
34204;SDS011;20471;49.680;20.074;2024-03-02T12:08:06;56.90;;;37.10;;
34204;SDS011;20471;49.680;20.074;2024-03-02T12:10:35;53.90;;;34.80;;
34204;SDS011;20471;49.680;20.074;2024-03-02T12:13:04;51.20;;;32.40;;
34204;SDS011;20471;49.680;20.074;2024-03-02T12:15:34;49.90;;;33.40;;
34204;SDS011;20471;49.680;20.074;2024-03-02T12:18:03;51.70;;;35.00;;
34204;SDS011;20471;49.680;20.074;2024-03-02T12:20:32;53.70;;;34.10;;
34204;SDS011;20471;49.680;20.074;2024-03-02T12:23:01;50.40;;;35.00;;
34204;SDS011;20471;49.680;20.074;2024-03-02T12:25:30;52.10;;;33.80;;
34204;SDS011;20471;49.680;20.074;2024-03-02T12:28:00;50.60;;;30.90;;
34204;SDS011;20471;49.680;20.074;2024-03-02T12:30:29;47.80;;;29.30;;
34204;SDS011;20471;49.680;20.074;2024-03-02T12:32:58;42.30;;;27.70;;
34204;SDS011;20471;49.680;20.074;2024-03-02T12:35:26;48.80;;;29.90;;
34204;SDS011;20471;49.680;20.074;2024-03-02T12:37:54;45.30;;;29.20;;
34204;SDS011;20471;49.680;20.074;2024-03-02T12:40:22;40.00;;;26.30;;
34204;SDS011;20471;49.680;20.074;2024-03-02T12:42:49;43.40;;;26.00;;
34204;SDS011;20471;49.680;20.074;2024-03-02T12:45:18;40.30;;;24.10;;
34204;SDS011;20471;49.680;20.074;2024-03-02T12:47:50;39.60;;;23.30;;
34204;SDS011;20471;49.680;20.074;2024-03-02T12:50:18;36.70;;;23.10;;
34204;SDS011;20471;49.680;20.074;2024-03-02T12:52:53;37.80;;;23.40;;
34204;SDS011;20471;49.680;20.074;2024-03-02T12:55:22;38.90;;;23.20;;
34204;SDS011;20471;49.680;20.074;2024-03-02T12:57:51;33.00;;;22.30;;
34204;SDS011;20471;49.680;20.074;2024-03-02T13:00:20;32.50;;;20.90;;
34204;SDS011;20471;49.680;20.074;2024-03-02T13:02:48;36.30;;;21.60;;
34204;SDS011;20471;49.680;20.074;2024-03-02T13:05:16;33.50;;;20.20;;
34204;SDS011;20471;49.680;20.074;2024-03-02T13:07:46;38.10;;;22.90;;
34204;SDS011;20471;49.680;20.074;2024-03-02T13:10:15;37.10;;;23.30;;
34204;SDS011;20471;49.680;20.074;2024-03-02T13:12:43;40.80;;;25.50;;
34204;SDS011;20471;49.680;20.074;2024-03-02T13:15:10;47.20;;;27.00;;
34204;SDS011;20471;49.680;20.074;2024-03-02T13:17:38;53.50;;;25.60;;
34204;SDS011;20471;49.680;20.074;2024-03-02T13:20:06;42.40;;;23.90;;
34204;SDS011;20471;49.680;20.074;2024-03-02T13:22:36;42.90;;;24.90;;
34204;SDS011;20471;49.680;20.074;2024-03-02T13:25:04;46.40;;;29.20;;
34204;SDS011;20471;49.680;20.074;2024-03-02T13:27:34;50.50;;;31.80;;
34204;SDS011;20471;49.680;20.074;2024-03-02T13:30:02;54.00;;;35.30;;
34204;SDS011;20471;49.680;20.074;2024-03-02T13:32:32;53.40;;;34.50;;
34204;SDS011;20471;49.680;20.074;2024-03-02T13:34:59;52.60;;;34.10;;
34204;SDS011;20471;49.680;20.074;2024-03-02T13:37:29;58.00;;;36.00;;
34204;SDS011;20471;49.680;20.074;2024-03-02T13:39:56;65.70;;;39.10;;
34204;SDS011;20471;49.680;20.074;2024-03-02T13:42:24;57.90;;;36.50;;
34204;SDS011;20471;49.680;20.074;2024-03-02T13:44:52;56.80;;;31.10;;
34204;SDS011;20471;49.680;20.074;2024-03-02T13:47:20;53.40;;;30.10;;
34204;SDS011;20471;49.680;20.074;2024-03-02T13:49:48;50.60;;;31.50;;
34204;SDS011;20471;49.680;20.074;2024-03-02T13:52:15;47.70;;;30.60;;
34204;SDS011;20471;49.680;20.074;2024-03-02T13:54:44;54.40;;;32.00;;
34204;SDS011;20471;49.680;20.074;2024-03-02T13:57:13;54.60;;;33.30;;
34204;SDS011;20471;49.680;20.074;2024-03-02T13:59:41;43.50;;;28.90;;
34204;SDS011;20471;49.680;20.074;2024-03-02T14:02:09;39.60;;;26.80;;
34204;SDS011;20471;49.680;20.074;2024-03-02T14:04:39;41.60;;;27.60;;
34204;SDS011;20471;49.680;20.074;2024-03-02T14:07:06;44.00;;;28.40;;
34204;SDS011;20471;49.680;20.074;2024-03-02T14:09:34;45.40;;;27.30;;
34204;SDS011;20471;49.680;20.074;2024-03-02T14:12:02;44.60;;;24.90;;
34204;SDS011;20471;49.680;20.074;2024-03-02T14:14:32;41.20;;;25.00;;
34204;SDS011;20471;49.680;20.074;2024-03-02T14:16:59;41.70;;;26.10;;
34204;SDS011;20471;49.680;20.074;2024-03-02T14:19:30;40.30;;;24.10;;
34204;SDS011;20471;49.680;20.074;2024-03-02T14:21:58;36.90;;;23.70;;
34204;SDS011;20471;49.680;20.074;2024-03-02T14:24:26;33.50;;;23.30;;
34204;SDS011;20471;49.680;20.074;2024-03-02T14:26:55;31.90;;;22.50;;
34204;SDS011;20471;49.680;20.074;2024-03-02T14:29:25;44.30;;;25.30;;
34204;SDS011;20471;49.680;20.074;2024-03-02T14:31:53;38.40;;;24.40;;
34204;SDS011;20471;49.680;20.074;2024-03-02T14:34:20;50.60;;;26.00;;
34204;SDS011;20471;49.680;20.074;2024-03-02T14:36:48;42.00;;;24.90;;
34204;SDS011;20471;49.680;20.074;2024-03-02T14:39:16;39.50;;;23.40;;